createdAt,value
2018-07-01T00:01:53.866Z,19.39
2018-07-01T00:04:21.579Z,19.32
2018-07-01T00:06:49.334Z,19.25
2018-07-01T00:09:17.057Z,19.26
2018-07-01T00:11:44.787Z,19.17
2018-07-01T00:14:12.482Z,19.12
2018-07-01T00:16:40.190Z,19.15
2018-07-01T00:19:07.927Z,19.02
2018-07-01T00:21:35.682Z,19.08
2018-07-01T00:24:03.459Z,19.07
2018-07-01T00:26:31.133Z,19.11
2018-07-01T00:28:58.823Z,19.02
2018-07-01T00:31:26.534Z,19.00
2018-07-01T00:33:54.230Z,19.06
2018-07-01T00:36:21.963Z,18.99
2018-07-01T00:38:49.670Z,18.93
2018-07-01T00:41:17.359Z,18.99
2018-07-01T00:43:45.083Z,18.96
2018-07-01T00:46:12.802Z,18.93
2018-07-01T00:48:40.470Z,18.92
2018-07-01T00:51:08.256Z,19.02
2018-07-01T00:53:35.971Z,19.14
2018-07-01T00:56:03.659Z,19.13
2018-07-01T00:58:31.344Z,19.14
2018-07-01T01:00:59.059Z,19.01
2018-07-01T01:03:26.733Z,18.88
2018-07-01T01:05:54.462Z,18.75
2018-07-01T01:08:22.105Z,18.80
2018-07-01T01:10:49.842Z,18.64
2018-07-01T01:13:17.595Z,18.54
2018-07-01T01:15:45.308Z,18.33
2018-07-01T01:18:13.038Z,18.25
2018-07-01T01:20:40.722Z,18.23
2018-07-01T01:23:08.443Z,18.30
2018-07-01T01:25:36.173Z,18.24
2018-07-01T01:28:03.895Z,18.22
2018-07-01T01:30:31.606Z,18.20
2018-07-01T01:32:59.355Z,18.11
2018-07-01T01:35:27.165Z,17.94
2018-07-01T01:37:54.902Z,18.07
2018-07-01T01:40:25.737Z,18.00
2018-07-01T01:43:01.519Z,17.83
2018-07-01T01:45:40.762Z,17.86
2018-07-01T01:48:12.793Z,17.79
2018-07-01T01:50:48.235Z,17.76
2018-07-01T01:53:25.310Z,17.76
2018-07-01T01:56:00.415Z,17.75
2018-07-01T01:59:03.294Z,17.57
2018-07-01T02:01:42.343Z,17.55
2018-07-01T02:04:30.245Z,17.55
2018-07-01T02:07:01.173Z,17.54
2018-07-01T02:09:31.646Z,17.50
2018-07-01T02:12:00.657Z,17.58
2018-07-01T02:14:39.945Z,17.56
2018-07-01T02:17:12.042Z,17.48
2018-07-01T02:19:39.838Z,17.45
2018-07-01T02:22:09.750Z,17.64
2018-07-01T02:24:41.264Z,17.60
2018-07-01T02:27:09.446Z,17.51
2018-07-01T02:29:37.211Z,17.39
2018-07-01T02:32:05.010Z,17.24
2018-07-01T02:34:32.702Z,17.45
2018-07-01T02:37:00.356Z,17.47
2018-07-01T02:39:28.121Z,17.51
2018-07-01T02:41:55.815Z,17.48
2018-07-01T02:44:23.508Z,17.40
2018-07-01T02:46:51.180Z,17.19
2018-07-01T02:49:18.883Z,17.26
2018-07-01T02:51:46.578Z,17.15
2018-07-01T02:54:14.331Z,17.18
2018-07-01T02:56:41.999Z,17.09
2018-07-01T02:59:09.692Z,17.28
2018-07-01T03:01:37.370Z,17.13
2018-07-01T03:04:05.061Z,16.99
2018-07-01T03:06:32.723Z,16.92
2018-07-01T03:09:00.450Z,16.86
2018-07-01T03:11:28.165Z,16.92
2018-07-01T03:13:55.810Z,17.00
2018-07-01T03:16:23.531Z,16.89
2018-07-01T03:18:51.186Z,16.64
2018-07-01T03:21:18.893Z,16.61
2018-07-01T03:23:46.620Z,16.73
2018-07-01T03:26:14.294Z,16.63
2018-07-01T03:28:41.916Z,16.42
2018-07-01T03:31:09.586Z,16.41
2018-07-01T03:33:37.298Z,16.33
2018-07-01T03:36:05.053Z,16.14
2018-07-01T03:38:32.714Z,16.17
2018-07-01T03:41:00.359Z,16.24
2018-07-01T03:43:28.135Z,16.03
2018-07-01T03:45:55.794Z,16.16
2018-07-01T03:48:23.465Z,16.18
2018-07-01T03:50:51.146Z,16.23
2018-07-01T03:53:18.825Z,16.27
2018-07-01T03:55:46.503Z,16.30
2018-07-01T03:58:14.240Z,16.21
2018-07-01T04:00:41.961Z,16.33
2018-07-01T04:03:09.721Z,16.30
2018-07-01T04:05:37.406Z,16.33
2018-07-01T04:08:05.098Z,16.37
2018-07-01T04:10:32.766Z,16.29
2018-07-01T04:13:00.442Z,16.35
2018-07-01T04:15:28.106Z,16.35
2018-07-01T04:17:55.827Z,16.48
2018-07-01T04:20:23.517Z,16.48
2018-07-01T04:22:51.209Z,16.44
2018-07-01T04:25:18.986Z,16.48
2018-07-01T04:27:46.638Z,16.62
2018-07-01T04:30:14.319Z,16.60
2018-07-01T04:32:41.965Z,16.73
2018-07-01T04:35:09.684Z,16.79
2018-07-01T04:37:37.350Z,16.81
2018-07-01T04:40:05.076Z,17.01
2018-07-01T04:42:32.723Z,17.06
2018-07-01T04:45:00.443Z,17.23
2018-07-01T04:47:28.158Z,17.41
2018-07-01T04:49:55.822Z,17.42
2018-07-01T04:52:23.535Z,17.70
2018-07-01T04:54:51.209Z,17.78
2018-07-01T04:57:18.870Z,17.84
2018-07-01T04:59:46.565Z,17.99
2018-07-01T05:02:14.347Z,17.93
2018-07-01T05:04:41.944Z,17.98
2018-07-01T05:07:09.631Z,17.70
2018-07-01T05:09:37.294Z,18.02
2018-07-01T05:12:05.003Z,18.03
2018-07-01T05:14:32.696Z,18.30
2018-07-01T05:17:00.452Z,18.17
2018-07-01T05:19:28.122Z,18.26
2018-07-01T05:21:55.811Z,18.44
2018-07-01T05:24:23.471Z,18.58
2018-07-01T05:26:51.178Z,18.47
2018-07-01T05:29:18.838Z,18.56
2018-07-01T05:31:46.534Z,18.74
2018-07-01T05:34:14.190Z,18.79
2018-07-01T05:36:41.887Z,18.86
2018-07-01T05:39:11.187Z,19.02
2018-07-01T05:41:38.877Z,18.95
2018-07-01T05:44:06.586Z,18.90
2018-07-01T05:46:34.309Z,19.12
2018-07-01T05:49:02.215Z,19.30
2018-07-01T05:51:30.207Z,19.34
2018-07-01T05:53:57.898Z,19.40
2018-07-01T05:56:25.581Z,19.61
2018-07-01T05:58:53.426Z,19.66
2018-07-01T06:01:21.118Z,19.88
2018-07-01T06:03:48.830Z,20.11
2018-07-01T06:06:16.565Z,20.31
2018-07-01T06:08:44.372Z,20.50
2018-07-01T06:11:12.027Z,20.72
2018-07-01T06:13:39.750Z,21.06
2018-07-01T06:16:07.471Z,21.02
2018-07-01T06:18:35.241Z,21.04
2018-07-01T06:21:03.008Z,21.58
2018-07-01T06:23:30.729Z,21.74
2018-07-01T06:25:58.433Z,21.87
2018-07-01T06:28:26.107Z,21.99
2018-07-01T06:30:53.795Z,21.79
2018-07-01T06:33:21.533Z,22.06
2018-07-01T06:35:49.243Z,22.28
2018-07-01T06:38:16.987Z,22.50
2018-07-01T06:40:44.754Z,22.85
2018-07-01T06:43:12.444Z,23.18
2018-07-01T06:45:40.158Z,23.45
2018-07-01T06:48:07.918Z,23.02
2018-07-01T06:50:35.630Z,23.29
2018-07-01T06:53:03.395Z,23.51
2018-07-01T06:55:31.075Z,23.76
2018-07-01T06:57:58.810Z,24.39
2018-07-01T07:00:26.479Z,24.85
2018-07-01T07:02:54.254Z,25.38
2018-07-01T07:05:21.939Z,25.40
2018-07-01T07:07:49.689Z,25.75
2018-07-01T07:10:17.414Z,25.76
2018-07-01T07:12:45.090Z,26.21
2018-07-01T07:15:12.785Z,26.46
2018-07-01T07:17:40.537Z,26.37
2018-07-01T07:20:08.414Z,26.44
2018-07-01T07:22:37.168Z,26.23
2018-07-01T07:25:05.543Z,26.35
2018-07-01T07:27:33.629Z,26.15
2018-07-01T07:30:01.330Z,26.51
2018-07-01T07:32:29.090Z,26.84
2018-07-01T07:34:56.774Z,26.74
2018-07-01T07:37:24.534Z,26.89
2018-07-01T07:39:52.214Z,27.18
2018-07-01T07:42:19.902Z,27.10
2018-07-01T07:44:47.639Z,26.70
2018-07-01T07:47:15.293Z,27.44
2018-07-01T07:49:43.038Z,27.17
2018-07-01T07:52:10.965Z,27.81
2018-07-01T07:54:38.622Z,28.05
2018-07-01T07:57:06.429Z,28.36
2018-07-01T07:59:34.131Z,28.05
2018-07-01T08:02:01.974Z,28.36
2018-07-01T08:04:29.685Z,28.36
2018-07-01T08:06:57.393Z,28.14
2018-07-01T08:09:25.097Z,28.37
2018-07-01T08:11:52.830Z,28.35
2018-07-01T08:14:20.559Z,28.67
2018-07-01T08:16:48.263Z,28.80
2018-07-01T08:19:15.997Z,28.80
2018-07-01T08:21:43.734Z,29.45
2018-07-01T08:24:11.777Z,29.40
2018-07-01T08:26:39.524Z,29.57
2018-07-01T08:29:07.348Z,30.39
2018-07-01T08:31:35.038Z,30.16
2018-07-01T08:34:02.796Z,30.38
2018-07-01T08:36:30.466Z,29.84
2018-07-01T08:38:58.238Z,29.80
2018-07-01T08:41:25.920Z,30.39
2018-07-01T08:43:53.610Z,30.56
2018-07-01T08:46:21.271Z,30.63
2018-07-01T08:48:49.026Z,31.14
2018-07-01T08:51:16.762Z,31.06
2018-07-01T08:53:45.526Z,30.79
2018-07-01T08:56:13.328Z,30.69
2018-07-01T08:58:41.005Z,31.14
2018-07-01T09:01:08.725Z,31.25
2018-07-01T09:03:36.453Z,31.09
2018-07-01T09:06:04.199Z,31.51
2018-07-01T09:08:31.921Z,31.32
2018-07-01T09:10:59.645Z,31.64
2018-07-01T09:13:27.341Z,31.43
2018-07-01T09:15:55.050Z,31.52
2018-07-01T09:18:22.769Z,32.29
2018-07-01T09:20:50.498Z,31.94
2018-07-01T09:23:18.280Z,31.76
2018-07-01T09:25:45.995Z,31.97
2018-07-01T09:28:13.768Z,32.10
2018-07-01T09:30:41.446Z,32.55
2018-07-01T09:33:09.143Z,32.46
2018-07-01T09:35:36.870Z,32.65
2018-07-01T09:38:04.646Z,32.76
2018-07-01T09:40:32.397Z,32.76
2018-07-01T09:43:00.133Z,32.73
2018-07-01T09:45:27.850Z,32.84
2018-07-01T09:47:55.551Z,32.70
2018-07-01T09:50:23.389Z,32.55
2018-07-01T09:52:51.545Z,33.05
2018-07-01T09:55:19.298Z,32.97
2018-07-01T09:57:47.038Z,32.73
2018-07-01T10:00:14.914Z,33.04
2018-07-01T10:02:42.616Z,32.88
2018-07-01T10:05:10.347Z,32.68
2018-07-01T10:07:38.039Z,33.06
2018-07-01T10:10:05.784Z,32.99
2018-07-01T10:12:33.489Z,33.60
2018-07-01T10:15:01.216Z,33.19
2018-07-01T10:17:28.992Z,32.95
2018-07-01T10:19:56.706Z,32.88
2018-07-01T10:22:24.415Z,32.81
2018-07-01T10:24:52.106Z,33.05
2018-07-01T10:27:19.789Z,33.60
2018-07-01T10:29:47.557Z,33.41
2018-07-01T10:32:15.254Z,32.94
2018-07-01T10:34:42.971Z,34.06
2018-07-01T10:37:10.691Z,34.01
2018-07-01T10:39:38.418Z,32.87
2018-07-01T10:42:06.508Z,32.92
2018-07-01T10:44:34.196Z,33.93
2018-07-01T10:47:02.796Z,33.80
2018-07-01T10:49:30.516Z,33.60
2018-07-01T10:51:58.235Z,33.55
2018-07-01T10:54:25.913Z,32.65
2018-07-01T10:56:53.711Z,32.76
2018-07-01T10:59:21.474Z,32.62
2018-07-01T11:01:50.194Z,31.62
2018-07-01T11:04:17.892Z,31.92
2018-07-01T11:06:45.591Z,31.60
2018-07-01T11:09:13.340Z,31.64
2018-07-01T11:11:41.061Z,31.17
2018-07-01T11:14:08.800Z,30.95
2018-07-01T11:16:36.529Z,30.60
2018-07-01T11:19:04.529Z,29.89
2018-07-01T11:21:32.272Z,29.76
2018-07-01T11:24:00.021Z,30.06
2018-07-01T11:26:27.762Z,30.06
2018-07-01T11:28:55.481Z,29.67
2018-07-01T11:31:23.214Z,29.70
2018-07-01T11:33:50.926Z,29.77
2018-07-01T11:36:18.658Z,30.21
2018-07-01T11:38:46.456Z,29.97
2018-07-01T11:41:14.168Z,29.69
2018-07-01T11:43:41.939Z,29.83
2018-07-01T11:46:09.663Z,29.86
2018-07-01T11:48:37.407Z,29.52
2018-07-01T11:51:05.206Z,28.90
2018-07-01T11:53:32.955Z,29.23
2018-07-01T11:56:00.617Z,29.30
2018-07-01T11:58:28.321Z,28.74
2018-07-01T12:00:56.054Z,28.50
2018-07-01T12:03:23.783Z,28.89
2018-07-01T12:05:51.518Z,28.67
2018-07-01T12:08:19.265Z,28.82
2018-07-01T12:10:47.027Z,28.42
2018-07-01T12:13:14.709Z,28.25
2018-07-01T12:15:42.459Z,28.39
2018-07-01T12:18:10.171Z,28.57
2018-07-01T12:20:37.843Z,28.36
2018-07-01T12:23:05.602Z,28.38
2018-07-01T12:25:33.293Z,28.43
2018-07-01T12:28:00.999Z,28.37
2018-07-01T12:30:28.726Z,28.47
2018-07-01T12:32:56.427Z,28.48
2018-07-01T12:35:24.107Z,28.51
2018-07-01T12:37:51.796Z,28.31
2018-07-01T12:40:19.572Z,28.41
2018-07-01T12:42:47.371Z,28.40
2018-07-01T12:45:15.115Z,28.24
2018-07-01T12:47:42.888Z,28.34
2018-07-01T12:50:10.599Z,27.93
2018-07-01T12:52:38.529Z,28.19
2018-07-01T12:55:06.320Z,28.07
2018-07-01T12:57:34.052Z,27.97
2018-07-01T13:00:01.756Z,27.74
2018-07-01T13:02:29.570Z,27.52
2018-07-01T13:04:57.334Z,27.74
2018-07-01T13:07:25.045Z,27.58
2018-07-01T13:09:52.745Z,27.46
2018-07-01T13:12:20.534Z,27.44
2018-07-01T13:14:48.237Z,27.61
2018-07-01T13:17:16.034Z,27.59
2018-07-01T13:19:43.790Z,27.94
2018-07-01T13:22:11.477Z,27.56
2018-07-01T13:24:39.194Z,27.73
2018-07-01T13:27:06.931Z,27.62
2018-07-01T13:29:34.589Z,27.58
2018-07-01T13:32:02.313Z,27.42
2018-07-01T13:34:29.996Z,27.37
2018-07-01T13:36:57.714Z,27.53
2018-07-01T13:39:25.391Z,27.62
2018-07-01T13:41:53.077Z,27.44
2018-07-01T13:44:20.804Z,27.29
2018-07-01T13:46:48.478Z,27.12
2018-07-01T13:49:16.182Z,27.20
2018-07-01T13:51:43.911Z,27.31
2018-07-01T13:54:11.632Z,27.15
2018-07-01T13:56:39.348Z,27.04
2018-07-01T13:59:07.050Z,27.08
2018-07-01T14:01:34.760Z,27.11
2018-07-01T14:04:02.545Z,27.35
2018-07-01T14:06:30.304Z,27.08
2018-07-01T14:08:58.474Z,27.05
2018-07-01T14:11:26.158Z,26.94
2018-07-01T14:13:53.859Z,27.07
2018-07-01T14:16:21.598Z,27.04
2018-07-01T14:18:49.382Z,26.77
2018-07-01T14:21:17.071Z,26.78
2018-07-01T14:23:44.775Z,26.70
2018-07-01T14:26:12.450Z,26.77
2018-07-01T14:28:40.143Z,26.76
2018-07-01T14:31:07.827Z,26.66
2018-07-01T14:33:35.554Z,26.65
2018-07-01T14:36:03.290Z,26.61
2018-07-01T14:38:30.988Z,26.63
2018-07-01T14:40:58.691Z,26.71
2018-07-01T14:43:26.392Z,26.88
2018-07-01T14:45:54.112Z,26.92
2018-07-01T14:48:22.614Z,26.70
2018-07-01T14:50:50.320Z,26.56
2018-07-01T14:53:18.118Z,26.55
2018-07-01T14:55:45.845Z,26.56
2018-07-01T14:58:13.563Z,26.65
2018-07-01T15:00:41.278Z,26.52
2018-07-01T15:03:09.080Z,26.48
2018-07-01T15:05:36.920Z,26.28
2018-07-01T15:08:05.047Z,26.36
2018-07-01T15:10:32.786Z,26.38
2018-07-01T15:13:00.500Z,26.39
2018-07-01T15:15:28.202Z,26.35
2018-07-01T15:17:55.985Z,26.22
2018-07-01T15:20:23.897Z,26.29
2018-07-01T15:22:51.609Z,26.38
2018-07-01T15:25:19.326Z,26.41
2018-07-01T15:27:47.058Z,26.37
2018-07-01T15:30:14.768Z,26.29
2018-07-01T15:32:42.514Z,26.30
2018-07-01T15:35:10.234Z,26.23
2018-07-01T15:37:37.890Z,26.19
2018-07-01T15:40:06.133Z,26.14
2018-07-01T15:42:33.832Z,26.17
2018-07-01T15:45:01.543Z,26.19
2018-07-01T15:47:29.242Z,26.14
2018-07-01T15:49:57.158Z,26.09
2018-07-01T15:52:24.896Z,25.98
2018-07-01T15:54:52.618Z,26.03
2018-07-01T15:57:20.314Z,26.04
2018-07-01T15:59:48.286Z,25.97
2018-07-01T16:02:16.021Z,25.85
2018-07-01T16:04:43.825Z,25.90
2018-07-01T16:07:11.779Z,25.78
2018-07-01T16:09:39.542Z,25.67
2018-07-01T16:12:07.375Z,25.69
2018-07-01T16:14:35.116Z,25.76
2018-07-01T16:17:03.174Z,25.75
2018-07-01T16:19:30.902Z,25.72
2018-07-01T16:21:58.598Z,25.74
2018-07-01T16:24:26.427Z,25.65
2018-07-01T16:26:55.582Z,25.78
2018-07-01T16:29:23.313Z,25.77
2018-07-01T16:31:51.067Z,25.78
2018-07-01T16:34:18.761Z,25.84
2018-07-01T16:36:46.778Z,25.72
2018-07-01T16:39:14.450Z,25.57
2018-07-01T16:41:42.171Z,25.62
2018-07-01T16:44:09.975Z,25.60
2018-07-01T16:46:37.698Z,25.70
2018-07-01T16:49:05.414Z,25.56
2018-07-01T16:51:33.221Z,25.36
2018-07-01T16:54:00.926Z,25.40
2018-07-01T16:56:28.653Z,25.41
2018-07-01T16:58:56.347Z,25.37
2018-07-01T17:01:24.099Z,25.25
2018-07-01T17:03:51.816Z,25.18
2018-07-01T17:06:19.545Z,25.02
2018-07-01T17:08:47.275Z,24.79
2018-07-01T17:11:14.988Z,24.74
2018-07-01T17:13:42.868Z,24.65
2018-07-01T17:16:10.542Z,24.69
2018-07-01T17:18:38.679Z,24.48
2018-07-01T17:21:06.519Z,24.42
2018-07-01T17:23:34.264Z,24.40
2018-07-01T17:26:02.020Z,24.16
2018-07-01T17:28:29.704Z,24.21
2018-07-01T17:31:02.956Z,24.30
2018-07-01T17:33:32.379Z,24.21
2018-07-01T17:36:00.171Z,24.20
2018-07-01T17:38:27.856Z,24.15
2018-07-01T17:40:55.621Z,24.12
2018-07-01T17:43:23.403Z,24.06
2018-07-01T17:45:51.235Z,24.01
2018-07-01T17:48:19.004Z,24.05
2018-07-01T17:50:46.753Z,23.92
2018-07-01T17:53:20.137Z,23.81
2018-07-01T17:55:47.830Z,23.88
2018-07-01T17:58:15.555Z,23.93
2018-07-01T18:00:43.738Z,23.93
2018-07-01T18:03:11.714Z,23.77
2018-07-01T18:05:39.425Z,23.64
2018-07-01T18:08:07.127Z,23.56
2018-07-01T18:10:34.863Z,23.51
2018-07-01T18:13:02.596Z,23.44
2018-07-01T18:15:30.350Z,23.49
2018-07-01T18:17:58.075Z,23.40
2018-07-01T18:20:25.821Z,23.33
2018-07-01T18:23:27.411Z,23.24
2018-07-01T18:25:21.296Z,23.19
2018-07-01T18:27:59.947Z,23.13
2018-07-01T18:30:16.719Z,23.04
2018-07-01T18:32:44.441Z,22.90
2018-07-01T18:35:12.126Z,22.81
2018-07-01T18:37:39.959Z,22.88
2018-07-01T18:40:07.669Z,22.79
2018-07-01T18:42:35.694Z,22.76
2018-07-01T18:45:03.344Z,22.73
2018-07-01T18:47:31.142Z,22.68
2018-07-01T18:49:58.910Z,22.45
2018-07-01T18:52:26.644Z,22.30
2018-07-01T18:54:54.362Z,22.21
2018-07-01T18:57:22.028Z,22.17
2018-07-01T18:59:49.780Z,22.28
2018-07-01T19:02:17.532Z,22.17
2018-07-01T19:04:45.225Z,22.06
2018-07-01T19:07:12.920Z,22.09
2018-07-01T19:09:40.670Z,22.00
2018-07-01T19:12:08.402Z,21.99
2018-07-01T19:14:36.115Z,21.82
2018-07-01T19:17:03.831Z,21.54
2018-07-01T19:19:31.551Z,21.61
2018-07-01T19:21:59.237Z,21.53
2018-07-01T19:24:26.956Z,21.37
2018-07-01T19:26:54.672Z,21.40
2018-07-01T19:29:22.376Z,21.29
2018-07-01T19:31:50.062Z,21.20
2018-07-01T19:34:17.775Z,21.20
2018-07-01T19:36:45.471Z,21.03
2018-07-01T19:39:13.294Z,21.00
2018-07-01T19:41:41.006Z,21.06
2018-07-01T19:44:08.707Z,20.93
2018-07-01T19:46:36.459Z,20.92
2018-07-01T19:49:04.202Z,20.84
2018-07-01T19:51:32.091Z,20.74
2018-07-01T19:53:59.811Z,20.76
2018-07-01T19:56:27.504Z,20.61
2018-07-01T19:58:55.207Z,20.49
2018-07-01T20:01:22.887Z,20.49
2018-07-01T20:03:50.555Z,20.39
2018-07-01T20:06:18.307Z,20.53
2018-07-01T20:08:45.965Z,20.46
2018-07-01T20:11:13.718Z,20.38
2018-07-01T20:13:41.411Z,20.33
2018-07-01T20:16:09.154Z,20.20
2018-07-01T20:18:36.927Z,20.22
2018-07-01T20:21:04.644Z,20.13
2018-07-01T20:23:32.330Z,19.92
2018-07-01T20:26:00.050Z,19.85
2018-07-01T20:28:27.754Z,19.81
2018-07-01T20:30:55.486Z,19.69
2018-07-01T20:33:23.215Z,19.81
2018-07-01T20:35:50.914Z,19.73
2018-07-01T20:38:19.128Z,19.64
2018-07-01T20:40:46.816Z,19.67
2018-07-01T20:43:14.628Z,19.71
2018-07-01T20:45:42.259Z,19.63
2018-07-01T20:48:09.962Z,19.59
2018-07-01T20:50:37.729Z,19.52
2018-07-01T20:53:05.529Z,19.40
2018-07-01T20:55:33.270Z,19.44
2018-07-01T20:58:00.957Z,19.35
2018-07-01T21:00:28.638Z,19.24
2018-07-01T21:02:56.347Z,19.26
2018-07-01T21:05:24.102Z,19.32
2018-07-01T21:07:51.863Z,19.19
2018-07-01T21:10:19.550Z,19.15
2018-07-01T21:12:47.284Z,19.06
2018-07-01T21:15:14.998Z,19.08
2018-07-01T21:17:42.785Z,19.11
2018-07-01T21:20:10.429Z,19.12
2018-07-01T21:22:38.176Z,19.06
2018-07-01T21:25:05.924Z,19.05
2018-07-01T21:27:33.649Z,19.02
2018-07-01T21:30:01.323Z,18.98
2018-07-01T21:32:29.027Z,18.84
2018-07-01T21:34:56.769Z,18.92
2018-07-01T21:37:24.519Z,18.89
2018-07-01T21:39:52.250Z,18.97
2018-07-01T21:42:19.963Z,18.99
2018-07-01T21:44:47.671Z,18.91
2018-07-01T21:47:15.358Z,18.79
2018-07-01T21:49:43.149Z,18.81
2018-07-01T21:52:10.853Z,18.84
2018-07-01T21:54:38.602Z,18.70
2018-07-01T21:57:06.288Z,18.64
2018-07-01T21:59:34.206Z,18.62
2018-07-01T22:02:02.046Z,18.64
2018-07-01T22:04:29.779Z,18.60
2018-07-01T22:06:58.790Z,18.67
2018-07-01T22:09:26.723Z,18.62
2018-07-01T22:12:00.236Z,18.52
2018-07-01T22:14:37.439Z,18.45
2018-07-01T22:17:06.803Z,18.42
2018-07-01T22:19:34.710Z,18.37
2018-07-01T22:22:02.754Z,18.30
2018-07-01T22:24:31.637Z,18.41
2018-07-01T22:26:59.413Z,18.46
2018-07-01T22:29:27.154Z,18.45
2018-07-01T22:31:54.939Z,18.24
2018-07-01T22:34:23.014Z,18.23
2018-07-01T22:36:51.183Z,18.09
2018-07-01T22:39:20.897Z,18.16
2018-07-01T22:41:49.291Z,18.10
2018-07-01T22:44:17.022Z,18.07
2018-07-01T22:46:45.541Z,18.19
2018-07-01T22:49:13.323Z,18.12
2018-07-01T22:51:41.070Z,18.10
2018-07-01T22:54:08.795Z,18.10
2018-07-01T22:56:36.577Z,17.93
2018-07-01T22:59:04.309Z,17.97
2018-07-01T23:01:32.309Z,17.93
2018-07-01T23:03:59.960Z,17.99
2018-07-01T23:06:28.157Z,17.88
2018-07-01T23:08:56.229Z,17.94
2018-07-01T23:11:23.983Z,17.95
2018-07-01T23:13:51.674Z,17.93
2018-07-01T23:16:19.420Z,17.88
2018-07-01T23:18:47.126Z,17.83
2018-07-01T23:21:14.921Z,17.81
2018-07-01T23:23:42.878Z,17.78
2018-07-01T23:26:10.607Z,17.69
2018-07-01T23:28:38.303Z,17.67
2018-07-01T23:31:06.003Z,17.70
2018-07-01T23:33:33.749Z,17.76
2018-07-01T23:36:01.469Z,17.63
2018-07-01T23:38:29.185Z,17.76
2018-07-01T23:40:56.891Z,17.66
2018-07-01T23:43:24.652Z,17.58
2018-07-01T23:45:52.360Z,17.59
2018-07-01T23:48:20.058Z,17.50
2018-07-01T23:50:47.770Z,17.63
2018-07-01T23:53:15.448Z,17.57
2018-07-01T23:55:43.138Z,17.44
2018-07-01T23:58:10.942Z,17.56
